createdAt,value
2023-05-09T00:02:30.097Z,100590.63
2023-05-09T00:05:32.952Z,100583.41
2023-05-09T00:08:37.997Z,100582.19
2023-05-09T00:11:40.853Z,100591.25
2023-05-09T00:14:45.727Z,100586.59
2023-05-09T00:17:48.534Z,100590.13
2023-05-09T00:20:51.780Z,100580.75
2023-05-09T00:23:55.844Z,100584.13
2023-05-09T00:26:58.548Z,100570.47
2023-05-09T00:30:01.260Z,100574.97
2023-05-09T00:33:04.007Z,100564.94
2023-05-09T00:36:07.413Z,100555.94
2023-05-09T00:39:11.493Z,100554.78
2023-05-09T00:42:14.184Z,100550.19
2023-05-09T00:45:16.885Z,100549.09
2023-05-09T00:48:19.742Z,100539.06
2023-05-09T00:51:23.248Z,100542.06
2023-05-09T00:54:27.423Z,100544.34
2023-05-09T00:57:30.076Z,100537.31
2023-05-09T01:00:32.780Z,100528.66
2023-05-09T01:03:36.689Z,100529.38
2023-05-09T01:06:46.217Z,100533.09
2023-05-09T01:10:00.470Z,100519.56
2023-05-09T01:13:09.801Z,100528.34
2023-05-09T01:16:23.843Z,100518.91
2023-05-09T01:19:46.268Z,100516.94
2023-05-09T01:22:56.706Z,100516.31
2023-05-09T01:26:04.461Z,100520.28
2023-05-09T01:29:37.795Z,100516.59
2023-05-09T01:32:43.721Z,100510.69
2023-05-09T01:35:52.328Z,100505.50
2023-05-09T01:38:55.833Z,100501.94
2023-05-09T01:42:00.767Z,100511.09
2023-05-09T01:45:09.167Z,100510.16
2023-05-09T01:48:14.637Z,100511.84
2023-05-09T01:51:18.242Z,100501.38
2023-05-09T01:54:23.170Z,100504.94
2023-05-09T01:57:26.741Z,100499.25
2023-05-09T02:00:33.037Z,100505.84
2023-05-09T02:03:37.765Z,100508.69
2023-05-09T02:06:41.998Z,100509.00
2023-05-09T02:09:44.908Z,100500.56
2023-05-09T02:12:47.753Z,100492.38
2023-05-09T02:15:52.727Z,100495.50
2023-05-09T02:18:55.554Z,100504.25
2023-05-09T02:21:58.321Z,100499.53
2023-05-09T02:25:01.313Z,100497.84
2023-05-09T02:28:04.621Z,100496.72
2023-05-09T02:31:10.426Z,100496.91
2023-05-09T02:34:14.297Z,100490.91
2023-05-09T02:37:17.712Z,100495.84
2023-05-09T02:40:21.521Z,100500.94
2023-05-09T02:43:24.260Z,100493.84
2023-05-09T02:46:28.425Z,100495.59
2023-05-09T02:49:32.676Z,100490.56
2023-05-09T02:52:35.608Z,100483.09
2023-05-09T02:55:38.485Z,100475.13
2023-05-09T02:58:41.205Z,100480.75
2023-05-09T03:01:45.458Z,100477.44
2023-05-09T03:04:48.170Z,100481.13
2023-05-09T03:07:51.627Z,100470.66
2023-05-09T03:10:54.463Z,100462.03
2023-05-09T03:13:57.139Z,100465.44
2023-05-09T03:17:01.183Z,100462.13
2023-05-09T03:20:05.538Z,100466.94
2023-05-09T03:23:08.333Z,100461.59
2023-05-09T03:26:11.018Z,100459.22
2023-05-09T03:29:13.974Z,100460.63
2023-05-09T03:32:18.031Z,100463.03
2023-05-09T03:35:20.976Z,100464.16
2023-05-09T03:38:24.381Z,100446.50
2023-05-09T03:41:27.186Z,100451.13
2023-05-09T03:44:29.919Z,100448.34
2023-05-09T03:47:33.967Z,100450.69
2023-05-09T03:50:36.723Z,100450.81
2023-05-09T03:53:39.373Z,100446.66
2023-05-09T03:56:42.051Z,100442.94
2023-05-09T03:59:44.750Z,100451.84
2023-05-09T04:02:49.551Z,100423.97
2023-05-09T04:05:52.370Z,100452.41
2023-05-09T04:08:55.081Z,100460.56
2023-05-09T04:11:57.794Z,100455.09
2023-05-09T04:15:00.512Z,100443.75
2023-05-09T04:18:05.979Z,100441.94
2023-05-09T04:21:08.802Z,100445.00
2023-05-09T04:24:11.760Z,100437.00
2023-05-09T04:27:14.476Z,100442.88
2023-05-09T04:30:17.577Z,100439.03
2023-05-09T04:33:22.195Z,100432.88
2023-05-09T04:36:25.045Z,100431.31
2023-05-09T04:39:27.737Z,100433.16
2023-05-09T04:42:33.469Z,100410.03
2023-05-09T04:45:36.214Z,100435.34
2023-05-09T04:48:40.433Z,100432.41
2023-05-09T04:51:43.188Z,100430.31
2023-05-09T04:54:46.095Z,100428.16
2023-05-09T04:57:48.839Z,100433.19
2023-05-09T05:00:51.528Z,100429.69
2023-05-09T05:03:55.896Z,100437.34
2023-05-09T05:06:58.557Z,100440.31
2023-05-09T05:10:01.253Z,100435.38
2023-05-09T05:13:04.158Z,100440.72
2023-05-09T05:16:07.016Z,100435.78
2023-05-09T05:19:11.169Z,100432.94
2023-05-09T05:22:13.935Z,100423.94
2023-05-09T05:25:17.772Z,100412.25
2023-05-09T05:28:20.518Z,100415.84
2023-05-09T05:31:23.361Z,100411.16
2023-05-09T05:34:27.513Z,100402.28
2023-05-09T05:37:30.298Z,100397.22
2023-05-09T05:40:33.112Z,100403.09
2023-05-09T05:43:35.865Z,100389.13
2023-05-09T05:46:38.586Z,100388.56
2023-05-09T05:49:42.658Z,100385.31
2023-05-09T05:52:45.403Z,100375.59
2023-05-09T05:55:49.244Z,100367.53
2023-05-09T05:58:51.950Z,100381.72
2023-05-09T06:01:54.701Z,100395.19
2023-05-09T06:04:58.831Z,100375.53
2023-05-09T06:08:01.552Z,100379.97
2023-05-09T06:11:06.006Z,100373.06
2023-05-09T06:14:08.695Z,100377.06
2023-05-09T06:17:11.737Z,100358.72
2023-05-09T06:20:15.903Z,100357.53
2023-05-09T06:23:22.231Z,100358.88
2023-05-09T06:26:24.967Z,100353.19
2023-05-09T06:29:27.800Z,100350.06
2023-05-09T06:32:30.611Z,100353.88
2023-05-09T06:35:34.724Z,100337.50
2023-05-09T06:38:37.417Z,100347.59
2023-05-09T06:41:40.592Z,100354.25
2023-05-09T06:44:43.909Z,100347.50
2023-05-09T06:47:46.696Z,100343.72
2023-05-09T06:50:51.100Z,100329.50
2023-05-09T06:53:53.813Z,100331.75
2023-05-09T06:56:56.588Z,100335.84
2023-05-09T06:59:59.620Z,100325.88
2023-05-09T07:03:02.439Z,100318.88
2023-05-09T07:06:07.099Z,100313.81
2023-05-09T07:09:10.045Z,100298.47
2023-05-09T07:12:12.791Z,100303.13
2023-05-09T07:15:22.950Z,100306.84
2023-05-09T07:18:35.474Z,100292.16
2023-05-09T07:21:39.605Z,100302.78
2023-05-09T07:24:44.234Z,100298.38
2023-05-09T07:27:46.936Z,100290.28
2023-05-09T07:30:49.802Z,100292.84
2023-05-09T07:33:52.648Z,100289.41
2023-05-09T07:36:58.742Z,100280.34
2023-05-09T07:40:01.580Z,100278.50
2023-05-09T07:43:04.490Z,100279.34
2023-05-09T07:46:07.315Z,100266.41
2023-05-09T07:49:10.229Z,100261.09
2023-05-09T07:52:14.379Z,100259.03
2023-05-09T07:55:17.610Z,100249.88
2023-05-09T07:58:20.675Z,100229.34
2023-05-09T08:01:23.386Z,100229.38
2023-05-09T08:04:26.539Z,100230.78
2023-05-09T08:07:30.631Z,100224.78
2023-05-09T08:10:33.941Z,100219.91
2023-05-09T08:13:37.833Z,100215.91
2023-05-09T08:16:40.726Z,100217.16
2023-05-09T08:19:43.495Z,100205.41
2023-05-09T08:22:47.556Z,100200.91
2023-05-09T08:25:54.438Z,100193.25
2023-05-09T08:28:57.192Z,100196.34
2023-05-09T08:31:59.915Z,100193.03
2023-05-09T08:35:02.859Z,100184.66
2023-05-09T08:38:06.999Z,100181.78
2023-05-09T08:41:09.698Z,100166.75
2023-05-09T08:44:12.576Z,100165.66
2023-05-09T08:47:16.666Z,100159.94
2023-05-09T08:50:20.922Z,100153.31
2023-05-09T08:53:26.794Z,100162.63
2023-05-09T08:56:31.017Z,100165.16
2023-05-09T08:59:36.797Z,100159.38
2023-05-09T09:02:42.975Z,100158.50
2023-05-09T09:05:46.468Z,100153.28
2023-05-09T09:08:51.847Z,100146.94
2023-05-09T09:11:55.546Z,100145.09
2023-05-09T09:15:04.674Z,100144.53
2023-05-09T09:18:10.271Z,100136.91
2023-05-09T09:21:16.672Z,100128.66
2023-05-09T09:24:23.493Z,100114.47
2023-05-09T09:27:26.313Z,100123.84
2023-05-09T09:30:29.381Z,100107.31
2023-05-09T09:33:32.179Z,100114.09
2023-05-09T09:36:36.620Z,100110.09
2023-05-09T09:39:55.138Z,100101.53
2023-05-09T09:42:57.940Z,100084.91
2023-05-09T09:46:03.018Z,100078.06
2023-05-09T09:49:06.006Z,100074.34
2023-05-09T09:52:08.695Z,100069.09
2023-05-09T09:55:13.855Z,100059.16
2023-05-09T09:58:25.020Z,100067.63
2023-05-09T10:01:27.790Z,100064.97
2023-05-09T10:04:31.990Z,100058.53
2023-05-09T10:07:35.359Z,100048.59
2023-05-09T10:10:39.837Z,100042.72
2023-05-09T10:13:42.979Z,100027.81
2023-05-09T10:16:47.690Z,100039.38
2023-05-09T10:19:52.078Z,100028.72
2023-05-09T10:22:57.369Z,100019.59
2023-05-09T10:26:10.170Z,100012.88
2023-05-09T10:29:14.149Z,100007.91
2023-05-09T10:32:20.656Z,100007.53
2023-05-09T10:35:27.548Z,100001.13
2023-05-09T10:38:31.923Z,99995.44
2023-05-09T10:41:37.029Z,99991.53
2023-05-09T10:44:40.283Z,99983.34
2023-05-09T10:47:45.071Z,99980.09
2023-05-09T10:50:48.586Z,99973.22
2023-05-09T10:53:52.244Z,99961.28
2023-05-09T10:56:56.947Z,99962.50
2023-05-09T11:00:00.416Z,99954.41
2023-05-09T11:03:08.047Z,99948.56
2023-05-09T11:06:11.248Z,99940.31
2023-05-09T11:09:28.372Z,99935.75
2023-05-09T11:12:32.791Z,99928.09
2023-05-09T11:15:37.631Z,99918.41
2023-05-09T11:18:58.609Z,99915.78
2023-05-09T11:22:03.493Z,99915.63
2023-05-09T11:25:08.783Z,99909.47
2023-05-09T11:28:28.110Z,99907.09
2023-05-09T11:31:30.949Z,99896.97
2023-05-09T11:34:34.820Z,99901.34
2023-05-09T11:37:47.015Z,99889.59
2023-05-09T11:40:49.858Z,99888.28
2023-05-09T11:43:54.101Z,99874.09
2023-05-09T11:46:58.642Z,99872.50
2023-05-09T11:50:01.340Z,99870.28
2023-05-09T11:53:04.041Z,99863.53
2023-05-09T11:56:08.546Z,99843.41
2023-05-09T11:59:14.747Z,99867.47
2023-05-09T12:02:17.896Z,99859.19
2023-05-09T12:05:22.135Z,99849.50
2023-05-09T12:08:27.022Z,99841.69
2023-05-09T12:11:32.786Z,99819.88
2023-05-09T12:14:36.806Z,99816.59
2023-05-09T12:17:39.922Z,99824.75
2023-05-09T12:20:44.885Z,99814.31
2023-05-09T12:23:50.649Z,99815.16
2023-05-09T12:26:56.562Z,99805.78
2023-05-09T12:30:02.072Z,99806.88
2023-05-09T12:33:05.951Z,99795.16
2023-05-09T12:36:11.583Z,99792.00
2023-05-09T12:39:15.145Z,99784.41
2023-05-09T12:42:18.658Z,99780.41
2023-05-09T12:45:23.352Z,99772.25
2023-05-09T12:48:26.801Z,99776.56
2023-05-09T12:51:29.776Z,99773.84
2023-05-09T12:54:33.065Z,99765.00
2023-05-09T12:57:36.450Z,99763.66
2023-05-09T13:00:45.914Z,99760.91
2023-05-09T13:03:53.469Z,99757.41
2023-05-09T13:06:59.852Z,99745.81
2023-05-09T13:10:02.589Z,99741.13
2023-05-09T13:13:05.398Z,99730.75
2023-05-09T13:16:11.548Z,99726.78
2023-05-09T13:19:15.438Z,99719.69
2023-05-09T13:22:21.200Z,99724.88
2023-05-09T13:25:24.245Z,99713.59
2023-05-09T13:28:26.943Z,99705.81
2023-05-09T13:31:31.382Z,99702.31
2023-05-09T13:34:34.289Z,99685.22
2023-05-09T13:37:37.173Z,99681.84
2023-05-09T13:40:40.347Z,99674.38
2023-05-09T13:43:43.054Z,99665.19
2023-05-09T13:46:47.366Z,99661.19
2023-05-09T13:49:50.139Z,99656.69
2023-05-09T13:52:52.929Z,99652.72
2023-05-09T13:55:55.721Z,99643.72
2023-05-09T13:58:58.435Z,99644.03
2023-05-09T14:02:03.644Z,99642.25
2023-05-09T14:05:07.208Z,99642.09
2023-05-09T14:08:09.897Z,99632.22
2023-05-09T14:11:15.173Z,99632.91
2023-05-09T14:14:17.898Z,99621.84
2023-05-09T14:17:22.042Z,99612.44
2023-05-09T14:20:25.025Z,99619.91
2023-05-09T14:23:27.780Z,99610.59
2023-05-09T14:26:30.516Z,99601.97
2023-05-09T14:29:33.208Z,99602.34
2023-05-09T14:32:37.304Z,99594.00
2023-05-09T14:35:41.509Z,99597.09
2023-05-09T14:38:45.638Z,99592.59
2023-05-09T14:41:50.082Z,99575.44
2023-05-09T14:44:52.941Z,99571.09
2023-05-09T14:47:57.202Z,99578.19
2023-05-09T14:50:59.995Z,99574.03
2023-05-09T14:54:04.453Z,99567.81
2023-05-09T14:57:07.796Z,99566.50
2023-05-09T15:00:20.302Z,99553.06
2023-05-09T15:03:26.159Z,99535.28
2023-05-09T15:06:29.219Z,99534.94
2023-05-09T15:09:31.923Z,99535.22
2023-05-09T15:12:34.696Z,99531.94
2023-05-09T15:15:38.365Z,99526.81
2023-05-09T15:18:45.508Z,99524.88
2023-05-09T15:21:48.245Z,99519.84
2023-05-09T15:24:51.034Z,99521.78
2023-05-09T15:27:54.099Z,99512.00
2023-05-09T15:30:58.177Z,99512.63
2023-05-09T15:34:02.667Z,99510.44
2023-05-09T15:37:05.851Z,99508.91
2023-05-09T15:40:09.808Z,99507.34
2023-05-09T15:43:12.968Z,99503.41
2023-05-09T15:46:16.066Z,99497.69
2023-05-09T15:49:20.155Z,99490.44
2023-05-09T15:52:22.880Z,99491.53
2023-05-09T15:55:26.857Z,99487.22
2023-05-09T15:58:31.658Z,99487.22
2023-05-09T16:01:41.543Z,99488.09
2023-05-09T16:04:45.716Z,99478.25
2023-05-09T16:07:50.092Z,99477.22
2023-05-09T16:10:53.071Z,99473.78
2023-05-09T16:13:55.854Z,99472.44
2023-05-09T16:16:58.651Z,99471.72
2023-05-09T16:20:03.798Z,99467.41
2023-05-09T16:23:06.578Z,99460.66
2023-05-09T16:26:09.349Z,99459.09
2023-05-09T16:29:12.868Z,99457.00
2023-05-09T16:32:15.649Z,99452.88
2023-05-09T16:35:19.996Z,99459.78
2023-05-09T16:38:22.734Z,99450.28
2023-05-09T16:41:25.468Z,99440.97
2023-05-09T16:44:28.493Z,99438.88
2023-05-09T16:47:31.291Z,99437.16
2023-05-09T16:50:36.075Z,99427.47
2023-05-09T16:53:38.769Z,99425.75
2023-05-09T16:56:42.278Z,99418.50
2023-05-09T16:59:45.936Z,99413.66
2023-05-09T17:02:48.712Z,99419.19
2023-05-09T17:05:52.806Z,99412.09
2023-05-09T17:08:55.677Z,99415.72
2023-05-09T17:11:58.999Z,99415.53
2023-05-09T17:15:01.731Z,99415.47
2023-05-09T17:18:04.598Z,99412.84
2023-05-09T17:21:08.695Z,99421.94
2023-05-09T17:24:11.609Z,99429.66
2023-05-09T17:27:14.333Z,99434.72
2023-05-09T17:30:18.345Z,99428.59
2023-05-09T17:33:22.119Z,99459.19
2023-05-09T17:36:26.932Z,99469.81
2023-05-09T17:39:29.632Z,99484.81
2023-05-09T17:42:32.812Z,99495.66
2023-05-09T17:45:35.729Z,99500.25
2023-05-09T17:48:38.742Z,99491.19
2023-05-09T17:51:42.815Z,99493.25
2023-05-09T17:54:45.689Z,99504.53
2023-05-09T17:57:49.192Z,99507.56
2023-05-09T18:00:53.756Z,99511.09
2023-05-09T18:03:57.285Z,99505.06
2023-05-09T18:07:01.585Z,99511.06
2023-05-09T18:10:07.911Z,99509.38
2023-05-09T18:13:10.897Z,99519.41
2023-05-09T18:16:13.798Z,99519.78
2023-05-09T18:19:16.625Z,99514.88
2023-05-09T18:22:21.686Z,99520.09
2023-05-09T18:25:24.692Z,99546.13
2023-05-09T18:28:27.624Z,99543.09
2023-05-09T18:31:31.303Z,99532.81
2023-05-09T18:34:34.125Z,99509.97
2023-05-09T18:37:38.329Z,99506.06
2023-05-09T18:40:41.053Z,99518.53
2023-05-09T18:43:46.331Z,99541.13
2023-05-09T18:46:49.023Z,99549.78
2023-05-09T18:49:51.802Z,99551.59
2023-05-09T18:52:55.914Z,99556.72
2023-05-09T18:55:58.588Z,99544.78
2023-05-09T18:59:01.272Z,99544.69
2023-05-09T19:02:03.956Z,99559.84
2023-05-09T19:05:07.938Z,99553.69
2023-05-09T19:08:12.003Z,99552.78
2023-05-09T19:11:14.988Z,99546.78
2023-05-09T19:14:17.769Z,99554.88
2023-05-09T19:17:20.864Z,99561.84
2023-05-09T19:20:24.034Z,99552.25
2023-05-09T19:23:28.180Z,99560.88
2023-05-09T19:26:30.856Z,99559.84
2023-05-09T19:29:33.664Z,99561.91
2023-05-09T19:32:36.641Z,99570.66
2023-05-09T19:35:39.441Z,99579.53
2023-05-09T19:38:43.651Z,99583.25
2023-05-09T19:41:46.842Z,99581.66
2023-05-09T19:44:53.258Z,99591.53
2023-05-09T19:47:56.054Z,99595.72
2023-05-09T19:50:59.056Z,99590.00
2023-05-09T19:54:03.497Z,99595.47
2023-05-09T19:57:06.490Z,99599.56
2023-05-09T20:00:10.410Z,99597.44
2023-05-09T20:03:13.360Z,99563.06
2023-05-09T20:06:16.209Z,99598.09
2023-05-09T20:09:21.060Z,99601.69
2023-05-09T20:12:23.813Z,99604.34
2023-05-09T20:15:26.898Z,99599.34
2023-05-09T20:18:33.256Z,99602.38
2023-05-09T20:21:36.342Z,99601.13
2023-05-09T20:24:40.449Z,99600.75
2023-05-09T20:27:43.190Z,99598.53
2023-05-09T20:30:46.226Z,99591.09
2023-05-09T20:33:48.891Z,99596.31
2023-05-09T20:36:53.883Z,99593.22
2023-05-09T20:39:58.026Z,99590.34
2023-05-09T20:43:00.713Z,99593.44
2023-05-09T20:46:03.802Z,99591.56
2023-05-09T20:49:07.479Z,99582.53
2023-05-09T20:52:10.555Z,99580.50
2023-05-09T20:55:14.602Z,99581.63
2023-05-09T20:58:17.294Z,99581.41
2023-05-09T21:01:20.360Z,99577.41
2023-05-09T21:04:23.173Z,99579.16
2023-05-09T21:07:25.880Z,99579.88
2023-05-09T21:10:29.918Z,99572.41
2023-05-09T21:13:32.621Z,99565.97
2023-05-09T21:16:36.349Z,99559.78
2023-05-09T21:19:39.050Z,99573.38
2023-05-09T21:22:41.755Z,99560.72
2023-05-09T21:25:45.919Z,99563.66
2023-05-09T21:28:48.604Z,99566.88
2023-05-09T21:31:52.356Z,99560.06
2023-05-09T21:34:55.109Z,99557.78
2023-05-09T21:37:57.904Z,99554.06
2023-05-09T21:41:02.633Z,99555.66
2023-05-09T21:44:05.724Z,99551.31
2023-05-09T21:47:08.664Z,99552.69
2023-05-09T21:50:11.762Z,99552.06
2023-05-09T21:53:14.721Z,99545.25
2023-05-09T21:56:18.772Z,99547.47
2023-05-09T21:59:22.374Z,99549.09
2023-05-09T22:02:25.285Z,99546.50
2023-05-09T22:05:28.341Z,99543.66
2023-05-09T22:08:31.177Z,99548.84
2023-05-09T22:11:35.284Z,99540.41
2023-05-09T22:14:48.494Z,99547.22
2023-05-09T22:17:58.500Z,99532.69
2023-05-09T22:21:01.279Z,99542.41
2023-05-09T22:24:05.583Z,99535.94
2023-05-09T22:27:09.759Z,99535.06
2023-05-09T22:30:13.359Z,99539.91
2023-05-09T22:33:16.215Z,99529.59
2023-05-09T22:36:19.726Z,99524.00
2023-05-09T22:39:22.887Z,99533.69
2023-05-09T22:42:27.212Z,99535.69
2023-05-09T22:45:30.078Z,99525.75
2023-05-09T22:48:32.831Z,99527.59
2023-05-09T22:51:35.614Z,99525.63
2023-05-09T22:54:38.427Z,99529.47
2023-05-09T22:57:42.841Z,99529.47
2023-05-09T23:00:45.615Z,99525.75
2023-05-09T23:03:48.288Z,99519.78
2023-05-09T23:06:51.007Z,99526.13
2023-05-09T23:09:53.748Z,99529.22
2023-05-09T23:12:57.891Z,99522.28
2023-05-09T23:16:00.649Z,99516.81
2023-05-09T23:19:04.417Z,99523.13
2023-05-09T23:22:07.138Z,99516.00
2023-05-09T23:25:10.591Z,99526.59
2023-05-09T23:28:17.122Z,99520.25
2023-05-09T23:31:19.861Z,99522.88
2023-05-09T23:34:22.666Z,99520.25
2023-05-09T23:37:25.368Z,99520.41
2023-05-09T23:40:28.090Z,99522.28
2023-05-09T23:43:32.736Z,99520.59
2023-05-09T23:46:35.523Z,99518.75
2023-05-09T23:49:38.314Z,99525.19
2023-05-09T23:52:41.392Z,99517.00
2023-05-09T23:55:44.457Z,99505.59
2023-05-09T23:58:48.516Z,99511.34
